createdAt,value
2018-04-17T00:00:22.984Z,101961.98
2018-04-17T00:02:51.395Z,101964.06
2018-04-17T00:05:20.492Z,101970.11
2018-04-17T00:07:49.111Z,101973.05
2018-04-17T00:10:17.637Z,101974.55
2018-04-17T00:12:45.999Z,101981.44
2018-04-17T00:15:14.419Z,101976.23
2018-04-17T00:17:42.917Z,101980.96
2018-04-17T00:20:11.251Z,101977.75
2018-04-17T00:22:39.859Z,101980.83
2018-04-17T00:25:08.992Z,101981.83
2018-04-17T00:30:05.023Z,101990.77
2018-04-17T00:35:01.168Z,101994.67
2018-04-17T00:37:29.519Z,102002.83
2018-04-17T00:39:58.707Z,102002.22
2018-04-17T00:42:27.065Z,102009.92
2018-04-17T00:44:55.427Z,102019.73
2018-04-17T00:47:23.847Z,102016.19
2018-04-17T00:49:53.158Z,102020.16
2018-04-17T00:52:22.345Z,102018.41
2018-04-17T00:54:51.543Z,102019.02
2018-04-17T00:57:19.877Z,102026.84
2018-04-17T00:59:49.950Z,102033.37
2018-04-17T01:02:19.108Z,102029.17
2018-04-17T01:04:47.423Z,102026.59
2018-04-17T01:07:15.750Z,102031.25
2018-04-17T01:09:44.131Z,102034.17
2018-04-17T01:12:12.626Z,102033.06
2018-04-17T01:14:41.129Z,102037.63
2018-04-17T01:17:09.783Z,102030.83
2018-04-17T01:19:38.138Z,102033.16
2018-04-17T01:22:06.509Z,102036.58
2018-04-17T01:24:36.596Z,102036.78
2018-04-17T01:27:04.968Z,102037.00
2018-04-17T01:29:34.335Z,102037.10
2018-04-17T01:32:03.427Z,102038.35
2018-04-17T01:34:33.132Z,102040.23
2018-04-17T01:37:01.446Z,102047.22
2018-04-17T01:39:29.871Z,102042.38
2018-04-17T01:41:58.187Z,102045.09
2018-04-17T01:44:27.286Z,102051.48
2018-04-17T01:46:56.382Z,102045.71
2018-04-17T01:49:25.531Z,102044.91
2018-04-17T01:51:53.852Z,102049.08
2018-04-17T01:54:23.008Z,102054.59
2018-04-17T01:56:51.327Z,102051.65
2018-04-17T01:59:20.415Z,102046.59
2018-04-17T02:01:49.634Z,102055.59
2018-04-17T02:04:18.739Z,102050.60
2018-04-17T02:06:47.088Z,102056.40
2018-04-17T02:09:15.478Z,102050.90
2018-04-17T02:11:43.849Z,102047.67
2018-04-17T02:14:12.931Z,102054.97
2018-04-17T02:16:41.324Z,102051.05
2018-04-17T02:19:09.677Z,102052.55
2018-04-17T02:21:38.051Z,102053.41
2018-04-17T02:24:06.784Z,102052.91
2018-04-17T02:26:35.861Z,102054.81
2018-04-17T02:29:04.168Z,102057.16
2018-04-17T02:31:33.263Z,102058.42
2018-04-17T02:34:02.352Z,102064.05
2018-04-17T02:36:30.693Z,102061.73
2018-04-17T02:38:59.031Z,102066.45
2018-04-17T02:41:27.410Z,102069.53
2018-04-17T02:43:55.728Z,102066.32
2018-04-17T02:46:24.339Z,102071.49
2018-04-17T02:48:52.674Z,102065.09
2018-04-17T02:51:21.012Z,102070.73
2018-04-17T02:53:50.123Z,102073.23
2018-04-17T02:56:18.483Z,102071.66
2018-04-17T02:58:46.866Z,102070.92
2018-04-17T03:01:15.273Z,102076.00
2018-04-17T03:03:43.615Z,102081.41
2018-04-17T03:06:12.692Z,102077.34
2018-04-17T03:08:41.283Z,102077.86
2018-04-17T03:11:09.619Z,102081.72
2018-04-17T03:13:37.955Z,102087.03
2018-04-17T03:16:07.069Z,102085.92
2018-04-17T03:18:35.369Z,102091.62
2018-04-17T03:21:03.695Z,102097.77
2018-04-17T03:23:32.076Z,102100.67
2018-04-17T03:26:00.420Z,102102.27
2018-04-17T03:28:28.735Z,102105.14
2018-04-17T03:30:57.145Z,102113.56
2018-04-17T03:33:25.483Z,102110.89
2018-04-17T03:35:53.834Z,102116.22
2018-04-17T03:38:22.207Z,102125.51
2018-04-17T03:40:50.539Z,102128.91
2018-04-17T03:43:18.862Z,102130.10
2018-04-17T03:45:47.192Z,102129.13
2018-04-17T03:48:15.523Z,102128.98
2018-04-17T03:50:43.852Z,102133.38
2018-04-17T03:53:13.324Z,102142.00
2018-04-17T03:55:41.644Z,102138.84
2018-04-17T03:58:09.962Z,102144.80
2018-04-17T04:00:38.327Z,102141.45
2018-04-17T04:03:06.652Z,102148.45
2018-04-17T04:05:34.976Z,102150.70
2018-04-17T04:08:03.350Z,102156.59
2018-04-17T04:10:31.662Z,102166.82
2018-04-17T04:12:59.975Z,102171.80
2018-04-17T04:15:28.361Z,102172.25
2018-04-17T04:18:14.255Z,102166.94
2018-04-17T04:21:01.098Z,102159.65
2018-04-17T04:23:46.900Z,102166.09
2018-04-17T04:26:31.802Z,102168.57
2018-04-17T04:29:00.146Z,102173.27
2018-04-17T04:31:28.455Z,102176.72
2018-04-17T04:33:57.289Z,102176.53
2018-04-17T04:36:25.638Z,102175.87
2018-04-17T04:38:54.001Z,102181.83
2018-04-17T04:41:22.496Z,102191.39
2018-04-17T04:43:51.034Z,102192.55
2018-04-17T04:46:19.352Z,102195.34
2018-04-17T04:48:47.715Z,102192.11
2018-04-17T04:51:16.214Z,102205.32
2018-04-17T04:53:45.295Z,102209.83
2018-04-17T04:56:14.038Z,102215.17
2018-04-17T04:58:42.947Z,102222.74
2018-04-17T05:01:11.270Z,102228.02
2018-04-17T05:03:39.600Z,102228.55
2018-04-17T05:06:08.698Z,102228.30
2018-04-17T05:08:37.015Z,102237.51
2018-04-17T05:11:05.393Z,102238.03
2018-04-17T05:13:33.710Z,102242.72
2018-04-17T05:16:02.802Z,102243.73
2018-04-17T05:18:32.060Z,102249.02
2018-04-17T05:21:00.388Z,102251.52
2018-04-17T05:23:28.703Z,102254.27
2018-04-17T05:25:57.230Z,102252.25
2018-04-17T05:28:25.563Z,102249.88
2018-04-17T05:30:53.929Z,102263.73
2018-04-17T05:33:22.303Z,102270.77
2018-04-17T05:35:50.591Z,102271.94
2018-04-17T05:38:18.923Z,102277.37
2018-04-17T05:40:48.953Z,102278.59
2018-04-17T05:43:17.446Z,102288.86
2018-04-17T05:45:45.772Z,102290.66
2018-04-17T05:48:14.251Z,102291.72
2018-04-17T05:50:42.576Z,102297.45
2018-04-17T05:53:11.676Z,102306.75
2018-04-17T05:55:40.974Z,102299.72
2018-04-17T05:58:10.085Z,102313.62
2018-04-17T06:00:38.447Z,102313.55
2018-04-17T06:03:07.638Z,102316.69
2018-04-17T06:05:35.948Z,102313.88
2018-04-17T06:08:04.324Z,102314.32
2018-04-17T06:10:32.686Z,102317.67
2018-04-17T06:13:01.774Z,102318.52
2018-04-17T06:15:30.129Z,102323.19
2018-04-17T06:17:58.590Z,102328.59
2018-04-17T06:20:26.955Z,102326.09
2018-04-17T06:22:55.279Z,102325.38
2018-04-17T06:25:24.078Z,102330.61
2018-04-17T06:27:53.205Z,102335.24
2018-04-17T06:30:21.558Z,102330.71
2018-04-17T06:32:49.915Z,102329.70
2018-04-17T06:35:18.254Z,102332.27
2018-04-17T06:37:46.584Z,102332.22
2018-04-17T06:40:15.787Z,102330.12
2018-04-17T06:42:44.162Z,102339.38
2018-04-17T06:45:12.495Z,102332.29
2018-04-17T06:47:41.072Z,102336.94
2018-04-17T06:50:10.149Z,102336.75
2018-04-17T06:52:38.526Z,102343.06
2018-04-17T06:55:07.644Z,102345.49
2018-04-17T06:57:35.994Z,102345.63
2018-04-17T07:00:04.485Z,102352.17
2018-04-17T07:02:32.881Z,102352.36
2018-04-17T07:05:01.235Z,102354.11
2018-04-17T07:07:29.532Z,102357.85
2018-04-17T07:09:57.998Z,102359.50
2018-04-17T07:12:27.106Z,102363.91
2018-04-17T07:14:55.447Z,102359.63
2018-04-17T07:17:23.827Z,102355.27
2018-04-17T07:19:52.132Z,102363.40
2018-04-17T07:22:20.503Z,102366.33
2018-04-17T07:24:49.660Z,102367.34
2018-04-17T07:27:18.131Z,102370.22
2018-04-17T07:29:46.459Z,102365.71
2018-04-17T07:32:15.157Z,102377.54
2018-04-17T07:34:44.291Z,102377.97
2018-04-17T07:37:12.586Z,102375.83
2018-04-17T07:39:40.969Z,102374.91
2018-04-17T07:42:09.435Z,102375.94
2018-04-17T07:44:37.830Z,102388.52
2018-04-17T07:47:29.133Z,102380.27
2018-04-17T07:49:57.435Z,102372.17
2018-04-17T07:52:25.834Z,102374.95
2018-04-17T07:54:54.952Z,102368.95
2018-04-17T07:57:24.068Z,102373.89
2018-04-17T07:59:52.383Z,102372.61
2018-04-17T08:02:20.726Z,102371.29
2018-04-17T08:04:49.032Z,102382.02
2018-04-17T08:07:17.337Z,102376.56
2018-04-17T08:09:46.126Z,102388.08
2018-04-17T08:12:14.524Z,102378.55
2018-04-17T08:14:43.023Z,102387.97
2018-04-17T08:17:11.375Z,102384.06
2018-04-17T08:19:40.458Z,102392.33
2018-04-17T08:22:08.812Z,102395.14
2018-04-17T08:24:37.171Z,102396.45
2018-04-17T08:27:05.496Z,102399.53
2018-04-17T08:29:34.029Z,102404.00
2018-04-17T08:32:02.582Z,102402.06
2018-04-17T08:34:31.743Z,102406.81
2018-04-17T08:37:00.120Z,102399.98
2018-04-17T08:39:28.440Z,102397.13
2018-04-17T08:41:57.532Z,102398.52
2018-04-17T08:44:26.616Z,102407.03
2018-04-17T08:46:54.990Z,102407.14
2018-04-17T08:49:23.292Z,102404.89
2018-04-17T08:51:51.606Z,102401.42
2018-04-17T08:54:20.447Z,102403.30
2018-04-17T08:56:49.577Z,102406.26
2018-04-17T08:59:17.935Z,102407.37
2018-04-17T09:01:47.092Z,102401.71
2018-04-17T09:04:15.411Z,102404.21
2018-04-17T09:06:44.528Z,102405.09
2018-04-17T09:09:12.884Z,102407.28
2018-04-17T09:11:42.061Z,102405.80
2018-04-17T09:14:10.351Z,102408.58
2018-04-17T09:16:39.251Z,102408.81
2018-04-17T09:19:08.360Z,102413.35
2018-04-17T09:21:36.672Z,102413.04
2018-04-17T09:24:05.152Z,102414.13
2018-04-17T09:26:33.508Z,102421.09
2018-04-17T09:29:01.872Z,102414.57
2018-04-17T09:31:30.211Z,102407.59
2018-04-17T09:33:58.559Z,102411.86
2018-04-17T09:36:26.899Z,102415.41
2018-04-17T09:38:55.446Z,102411.22
2018-04-17T09:41:23.810Z,102420.80
2018-04-17T09:43:52.122Z,102422.03
2018-04-17T09:46:20.484Z,102434.09
2018-04-17T09:48:48.832Z,102436.16
2018-04-17T09:51:17.171Z,102442.23
2018-04-17T09:53:46.303Z,102434.80
2018-04-17T09:56:14.638Z,102429.40
2018-04-17T09:58:42.973Z,102433.53
2018-04-17T10:01:17.029Z,102442.91
2018-04-17T10:03:45.432Z,102436.09
2018-04-17T10:06:14.507Z,102439.42
2018-04-17T10:08:43.718Z,102428.53
2018-04-17T10:11:12.011Z,102437.48
2018-04-17T10:13:40.410Z,102429.84
2018-04-17T10:16:08.780Z,102424.68
2018-04-17T10:18:37.165Z,102429.91
2018-04-17T10:21:05.540Z,102430.28
2018-04-17T10:23:34.367Z,102424.66
2018-04-17T10:26:02.725Z,102436.20
2018-04-17T10:28:31.036Z,102433.27
2018-04-17T10:30:59.405Z,102433.57
2018-04-17T10:33:27.746Z,102432.06
2018-04-17T10:35:56.080Z,102434.12
2018-04-17T10:38:24.536Z,102431.03
2018-04-17T10:40:52.936Z,102433.98
2018-04-17T10:43:21.300Z,102432.70
2018-04-17T10:45:49.820Z,102436.20
2018-04-17T10:48:18.912Z,102439.43
2018-04-17T10:50:47.223Z,102417.82
2018-04-17T10:53:15.599Z,102432.95
2018-04-17T10:55:43.935Z,102429.65
2018-04-17T10:58:12.306Z,102424.75
2018-04-17T11:00:40.712Z,102427.78
2018-04-17T11:03:09.805Z,102431.16
2018-04-17T11:05:38.927Z,102430.08
2018-04-17T11:08:07.713Z,102431.55
2018-04-17T11:10:36.060Z,102432.19
2018-04-17T11:13:04.432Z,102428.41
2018-04-17T11:15:32.814Z,102432.03
2018-04-17T11:18:01.120Z,102423.37
2018-04-17T11:20:30.232Z,102413.37
2018-04-17T11:22:58.587Z,102416.62
2018-04-17T11:25:27.664Z,102417.38
2018-04-17T11:27:56.027Z,102412.45
2018-04-17T11:30:24.691Z,102408.22
2018-04-17T11:32:53.012Z,102413.83
2018-04-17T11:35:21.357Z,102409.90
2018-04-17T11:37:49.733Z,102412.22
2018-04-17T11:40:18.063Z,102408.12
2018-04-17T11:42:47.296Z,102414.07
2018-04-17T11:45:15.611Z,102409.28
2018-04-17T11:47:44.012Z,102401.99
2018-04-17T11:50:12.389Z,102409.81
2018-04-17T11:52:40.894Z,102399.02
2018-04-17T11:55:10.140Z,102403.77
2018-04-17T11:57:38.477Z,102401.30
2018-04-17T12:00:07.594Z,102399.30
2018-04-17T12:02:35.922Z,102405.09
2018-04-17T12:05:04.257Z,102404.56
2018-04-17T12:07:32.699Z,102404.13
2018-04-17T12:10:01.014Z,102411.62
2018-04-17T12:12:29.345Z,102398.89
2018-04-17T12:14:58.528Z,102403.91
2018-04-17T12:17:26.895Z,102396.42
2018-04-17T12:19:55.209Z,102396.56
2018-04-17T12:22:24.345Z,102403.14
2018-04-17T12:24:52.719Z,102411.23
2018-04-17T12:27:21.020Z,102406.11
2018-04-17T12:29:49.371Z,102406.53
2018-04-17T12:32:18.056Z,102415.77
2018-04-17T12:34:46.471Z,102423.40
2018-04-17T12:37:15.106Z,102414.59
2018-04-17T12:39:44.187Z,102418.52
2018-04-17T12:42:12.535Z,102424.34
2018-04-17T12:44:40.883Z,102424.36
2018-04-17T12:47:09.219Z,102419.77
2018-04-17T12:49:37.530Z,102423.09
2018-04-17T12:52:05.903Z,102428.23
2018-04-17T12:54:34.320Z,102426.78
2018-04-17T12:57:03.390Z,102425.69
2018-04-17T12:59:32.237Z,102423.80
2018-04-17T13:02:00.592Z,102415.09
2018-04-17T13:04:28.908Z,102411.11
2018-04-17T13:06:58.024Z,102418.09
2018-04-17T13:09:26.345Z,102417.01
2018-04-17T13:11:54.679Z,102404.27
2018-04-17T13:14:23.806Z,102404.04
2018-04-17T13:16:52.134Z,102408.97
2018-04-17T13:19:21.273Z,102407.80
2018-04-17T13:21:49.874Z,102402.13
2018-04-17T13:24:22.044Z,102405.61
2018-04-17T13:26:50.356Z,102412.77
2018-04-17T13:29:18.728Z,102403.19
2018-04-17T13:31:47.043Z,102409.02
2018-04-17T13:34:15.651Z,102403.86
2018-04-17T13:36:44.013Z,102399.52
2018-04-17T13:39:12.342Z,102400.96
2018-04-17T13:41:40.643Z,102393.04
2018-04-17T13:44:09.966Z,102392.92
2018-04-17T13:46:38.320Z,102386.70
2018-04-17T13:49:07.413Z,102398.15
2018-04-17T13:51:35.781Z,102390.67
2018-04-17T13:54:04.136Z,102383.30
2018-04-17T13:56:32.433Z,102380.90
2018-04-17T13:59:00.803Z,102381.23
2018-04-17T14:01:29.159Z,102386.92
2018-04-17T14:03:57.513Z,102384.37
2018-04-17T14:06:25.993Z,102394.18
2018-04-17T14:08:54.317Z,102388.50
2018-04-17T14:11:22.648Z,102391.11
2018-04-17T14:13:51.763Z,102384.66
2018-04-17T14:16:20.064Z,102395.13
2018-04-17T14:18:48.396Z,102389.46
2018-04-17T14:21:16.742Z,102392.48
2018-04-17T14:23:45.091Z,102391.33
2018-04-17T14:26:13.398Z,102385.41
2018-04-17T14:28:42.016Z,102395.15
2018-04-17T14:31:11.115Z,102397.72
2018-04-17T14:33:40.237Z,102396.78
2018-04-17T14:36:08.641Z,102400.28
2018-04-17T14:38:36.962Z,102395.41
2018-04-17T14:41:06.057Z,102395.94
2018-04-17T14:43:34.480Z,102400.16
2018-04-17T14:46:02.843Z,102396.84
2018-04-17T14:48:31.222Z,102409.89
2018-04-17T14:50:59.984Z,102406.69
2018-04-17T14:53:29.048Z,102403.95
2018-04-17T14:55:57.354Z,102405.58
2018-04-17T14:58:25.811Z,102400.88
2018-04-17T15:00:54.158Z,102399.87
2018-04-17T15:03:22.544Z,102404.33
2018-04-17T15:05:51.640Z,102408.31
2018-04-17T15:08:19.987Z,102402.15
2018-04-17T15:10:48.340Z,102404.58
2018-04-17T15:13:17.029Z,102402.73
2018-04-17T15:15:45.533Z,102405.02
2018-04-17T15:18:14.632Z,102397.50
2018-04-17T15:20:43.791Z,102398.59
2018-04-17T15:23:12.109Z,102397.89
2018-04-17T15:25:41.204Z,102403.77
2018-04-17T15:28:09.562Z,102400.70
2018-04-17T15:30:38.709Z,102407.56
2018-04-17T15:33:07.074Z,102410.98
2018-04-17T15:35:35.470Z,102409.27
2018-04-17T15:38:03.815Z,102407.70
2018-04-17T15:40:32.912Z,102419.11
2018-04-17T15:43:02.021Z,102419.25
2018-04-17T15:45:30.344Z,102414.97
2018-04-17T15:47:58.657Z,102407.27
2018-04-17T15:50:27.001Z,102399.72
2018-04-17T15:52:55.325Z,102392.57
2018-04-17T15:55:24.400Z,102391.88
2018-04-17T15:57:52.829Z,102391.27
2018-04-17T16:00:21.153Z,102390.45
2018-04-17T16:02:49.479Z,102381.09
2018-04-17T16:05:17.867Z,102384.36
2018-04-17T16:07:46.205Z,102385.42
2018-04-17T16:10:15.295Z,102382.98
2018-04-17T16:12:43.904Z,102382.25
2018-04-17T16:15:12.246Z,102384.50
2018-04-17T16:17:40.624Z,102390.97
2018-04-17T16:20:09.228Z,102402.27
2018-04-17T16:22:38.344Z,102405.05
2018-04-17T16:25:06.736Z,102401.33
2018-04-17T16:27:35.121Z,102409.11
2018-04-17T16:30:03.448Z,102416.97
2018-04-17T16:32:32.579Z,102420.01
2018-04-17T16:35:00.946Z,102420.76
2018-04-17T16:37:30.127Z,102421.71
2018-04-17T16:39:58.450Z,102427.95
2018-04-17T16:42:27.156Z,102423.36
2018-04-17T16:44:55.504Z,102426.45
2018-04-17T16:47:23.828Z,102429.77
2018-04-17T16:49:52.180Z,102430.50
2018-04-17T16:52:20.506Z,102433.92
2018-04-17T16:54:48.818Z,102438.18
2018-04-17T16:57:17.159Z,102439.55
2018-04-17T16:59:45.498Z,102445.02
2018-04-17T17:02:13.858Z,102453.63
2018-04-17T17:04:42.495Z,102448.50
2018-04-17T17:07:10.819Z,102454.81
2018-04-17T17:09:39.907Z,102456.17
2018-04-17T17:12:09.041Z,102458.00
2018-04-17T17:14:37.370Z,102459.72
2018-04-17T17:17:06.476Z,102459.66
2018-04-17T17:19:34.851Z,102456.98
2018-04-17T17:22:03.950Z,102457.86
2018-04-17T17:24:33.059Z,102457.73
2018-04-17T17:27:01.838Z,102467.72
2018-04-17T17:29:30.184Z,102475.02
2018-04-17T17:31:58.509Z,102469.22
2018-04-17T17:34:26.898Z,102475.16
2018-04-17T17:36:55.264Z,102475.20
2018-04-17T17:39:23.807Z,102478.37
2018-04-17T17:41:52.185Z,102481.89
2018-04-17T17:44:20.530Z,102481.11
2018-04-17T17:46:48.866Z,102474.84
2018-04-17T17:49:18.308Z,102478.55
2018-04-17T17:51:46.648Z,102474.59
2018-04-17T17:54:15.160Z,102473.27
2018-04-17T17:56:43.714Z,102473.09
2018-04-17T17:59:12.845Z,102460.20
2018-04-17T18:01:41.268Z,102470.31
2018-04-17T18:04:09.678Z,102470.45
2018-04-17T18:06:38.255Z,102479.92
2018-04-17T18:09:07.324Z,102476.80
2018-04-17T18:11:35.929Z,102478.45
2018-04-17T18:14:05.772Z,102472.67
2018-04-17T18:16:34.163Z,102477.06
2018-04-17T18:19:02.589Z,102478.04
2018-04-17T18:21:31.138Z,102486.45
2018-04-17T18:23:59.449Z,102494.17
2018-04-17T18:26:27.791Z,102503.59
2018-04-17T18:28:56.119Z,102513.50
2018-04-17T18:31:24.634Z,102519.45
2018-04-17T18:33:53.161Z,102515.55
2018-04-17T18:36:21.486Z,102513.56
2018-04-17T18:38:51.413Z,102517.36
2018-04-17T18:41:19.840Z,102518.89
2018-04-17T18:43:48.862Z,102528.48
2018-04-17T18:46:17.247Z,102526.94
2018-04-17T18:48:46.478Z,102536.59
2018-04-17T18:51:14.858Z,102543.13
2018-04-17T18:53:43.260Z,102548.36
2018-04-17T18:56:11.729Z,102557.94
2018-04-17T18:58:40.079Z,102557.33
2018-04-17T19:01:10.089Z,102562.58
2018-04-17T19:03:38.863Z,102559.03
2018-04-17T19:06:07.990Z,102561.86
2018-04-17T19:08:37.070Z,102567.88
2018-04-17T19:11:06.271Z,102561.98
2018-04-17T19:13:34.619Z,102564.70
2018-04-17T19:16:02.961Z,102574.48
2018-04-17T19:18:31.737Z,102570.47
2018-04-17T19:21:00.263Z,102579.06
2018-04-17T19:23:28.647Z,102573.97
2018-04-17T19:25:57.006Z,102574.80
2018-04-17T19:28:25.634Z,102575.03
2018-04-17T19:30:54.196Z,102572.25
2018-04-17T19:33:22.612Z,102570.56
2018-04-17T19:35:50.962Z,102565.54
2018-04-17T19:38:20.486Z,102571.38
2018-04-17T19:40:50.832Z,102566.73
2018-04-17T19:43:19.178Z,102578.97
2018-04-17T19:45:48.312Z,102578.11
2018-04-17T19:48:16.922Z,102589.00
2018-04-17T19:50:46.760Z,102589.11
2018-04-17T19:53:16.400Z,102593.94
2018-04-17T19:55:44.914Z,102597.48
2018-04-17T19:58:13.303Z,102602.98
2018-04-17T20:00:41.646Z,102604.15
2018-04-17T20:03:10.338Z,102613.16
2018-04-17T20:05:39.464Z,102603.81
2018-04-17T20:08:07.800Z,102605.19
2018-04-17T20:10:36.930Z,102607.50
2018-04-17T20:13:05.293Z,102606.66
2018-04-17T20:15:33.869Z,102599.88
2018-04-17T20:18:03.018Z,102602.70
2018-04-17T20:20:31.440Z,102601.16
2018-04-17T20:23:00.526Z,102595.08
2018-04-17T20:25:29.936Z,102599.63
2018-04-17T20:27:58.281Z,102595.08
2018-04-17T20:30:26.663Z,102598.84
2018-04-17T20:32:55.013Z,102599.70
2018-04-17T20:35:23.363Z,102601.76
2018-04-17T20:37:52.746Z,102606.13
2018-04-17T20:40:21.124Z,102604.33
2018-04-17T20:42:49.971Z,102610.81
2018-04-17T20:45:18.306Z,102613.22
2018-04-17T20:47:47.938Z,102617.19
2018-04-17T20:50:16.332Z,102614.70
2018-04-17T20:52:44.715Z,102619.28
2018-04-17T20:55:13.079Z,102612.25
2018-04-17T20:57:41.454Z,102614.15
2018-04-17T21:00:09.813Z,102609.59
2018-04-17T21:02:39.054Z,102611.43
2018-04-17T21:05:07.509Z,102601.38
2018-04-17T21:07:36.071Z,102608.61
2018-04-17T21:10:04.692Z,102606.11
2018-04-17T21:12:33.235Z,102603.58
2018-04-17T21:15:01.563Z,102604.05
2018-04-17T21:17:29.941Z,102603.81
2018-04-17T21:19:58.303Z,102603.44
2018-04-17T21:22:26.647Z,102601.19
2018-04-17T21:24:56.617Z,102607.06
2018-04-17T21:27:25.039Z,102610.49
2018-04-17T21:29:53.402Z,102611.29
2018-04-17T21:32:22.101Z,102614.92
2018-04-17T21:34:50.425Z,102606.58
2018-04-17T21:37:18.959Z,102608.93
2018-04-17T21:39:47.334Z,102605.54
2018-04-17T21:42:15.652Z,102610.66
2018-04-17T21:44:45.271Z,102610.75
2018-04-17T21:47:13.747Z,102612.27
2018-04-17T21:49:42.843Z,102612.35
2018-04-17T21:52:11.197Z,102614.42
2018-04-17T21:54:40.538Z,102609.50
2018-04-17T21:57:08.848Z,102621.30
2018-04-17T21:59:37.177Z,102621.98
2018-04-17T22:02:06.357Z,102619.67
2018-04-17T22:04:35.447Z,102622.48
2018-04-17T22:07:03.747Z,102620.63
2018-04-17T22:09:32.860Z,102622.21
2018-04-17T22:12:01.192Z,102624.89
2018-04-17T22:14:29.515Z,102629.75
2018-04-17T22:16:58.116Z,102631.19
2018-04-17T22:19:26.607Z,102632.70
2018-04-17T22:21:55.107Z,102631.01
2018-04-17T22:24:23.478Z,102634.72
2018-04-17T22:26:51.942Z,102643.73
2018-04-17T22:29:20.304Z,102643.86
2018-04-17T22:31:48.729Z,102637.16
2018-04-17T22:34:17.048Z,102646.89
2018-04-17T22:36:46.240Z,102648.47
2018-04-17T22:39:14.671Z,102650.81
2018-04-17T22:41:42.996Z,102655.27
2018-04-17T22:44:11.332Z,102653.13
2018-04-17T22:46:39.723Z,102651.39
2018-04-17T22:49:08.081Z,102645.55
2018-04-17T22:51:36.412Z,102658.23
2018-04-17T22:54:04.828Z,102655.66
2018-04-17T22:56:33.178Z,102659.86
2018-04-17T22:59:02.280Z,102657.33
2018-04-17T23:01:31.863Z,102664.47
2018-04-17T23:04:00.357Z,102663.61
2018-04-17T23:06:29.048Z,102664.98
2018-04-17T23:08:57.569Z,102666.00
2018-04-17T23:11:25.883Z,102663.48
2018-04-17T23:13:54.183Z,102660.03
2018-04-17T23:16:23.448Z,102655.77
2018-04-17T23:18:51.786Z,102662.11
2018-04-17T23:21:20.375Z,102674.96
2018-04-17T23:23:49.078Z,102673.31
2018-04-17T23:26:17.392Z,102668.29
2018-04-17T23:28:46.545Z,102675.20
2018-04-17T23:31:14.960Z,102671.47
2018-04-17T23:33:43.582Z,102671.97
2018-04-17T23:36:12.670Z,102670.25
2018-04-17T23:38:41.150Z,102676.27
2018-04-17T23:41:09.502Z,102674.84
2018-04-17T23:43:37.851Z,102678.22
2018-04-17T23:46:06.390Z,102691.64
2018-04-17T23:48:34.737Z,102694.87
2018-04-17T23:51:03.382Z,102693.86
2018-04-17T23:53:31.895Z,102695.22
2018-04-17T23:56:00.353Z,102702.62
2018-04-17T23:58:28.833Z,102702.84
